createdAt,value
2023-04-09T00:04:16.415Z,0.2
2023-04-09T00:09:15.977Z,0.1
2023-04-09T00:14:17.038Z,0.1
2023-04-09T00:19:13.848Z,0.2
2023-04-09T00:24:13.385Z,0.2
2023-04-09T00:29:13.600Z,0.1
2023-04-09T00:34:13.230Z,0.2
2023-04-09T00:39:10.401Z,0.1
2023-04-09T00:44:09.920Z,0.1
2023-04-09T00:49:09.085Z,0.1
2023-04-09T00:54:08.602Z,0.2
2023-04-09T00:59:08.228Z,0.1
2023-04-09T01:00:55.150Z,0.1
2023-04-09T01:05:29.709Z,0.2
2023-04-09T01:10:29.075Z,0.2
2023-04-09T01:15:26.147Z,0.1
2023-04-09T01:20:26.512Z,0.1
2023-04-09T01:25:25.889Z,0.1
2023-04-09T01:30:28.900Z,0.1
2023-04-09T01:35:24.491Z,0.1
2023-04-09T01:40:24.402Z,0.1
2023-04-09T01:45:24.114Z,0.1
2023-04-09T01:50:24.239Z,0.1
2023-04-09T01:55:24.667Z,0.1
2023-04-09T02:24:25.939Z,0.1
2023-04-09T03:01:03.942Z,0.1
2023-04-09T07:04:19.320Z,59.7
2023-04-09T07:09:18.975Z,61.1
2023-04-09T07:14:18.404Z,63.1
2023-04-09T07:19:19.788Z,300
2023-04-09T07:24:16.657Z,314.1
2023-04-09T07:29:16.155Z,328.7
2023-04-09T07:34:16.786Z,342.6
2023-04-09T07:39:16.661Z,350
2023-04-09T07:44:16.395Z,364
2023-04-09T07:49:19.205Z,379
2023-04-09T07:54:17.027Z,392.5
2023-04-09T07:59:17.946Z,391.8
2023-04-09T08:04:15.627Z,409
2023-04-09T08:09:15.687Z,397
2023-04-09T08:14:14.373Z,442.6
2023-04-09T08:19:14.784Z,462.6
2023-04-09T08:24:12.219Z,467.8
2023-04-09T08:29:12.539Z,466.4
2023-04-09T08:34:11.550Z,488.3
2023-04-09T08:39:11.512Z,503.5
2023-04-09T08:44:28.474Z,519.3
2023-04-09T08:49:10.600Z,537.4
2023-04-09T08:59:10.800Z,561.9
2023-04-09T09:04:12.089Z,563.4
2023-04-09T09:14:09.008Z,148.5
2023-04-09T09:19:08.461Z,237.7
2023-04-09T09:29:06.548Z,243.6
2023-04-09T09:34:06.380Z,859.6
2023-04-09T09:44:07.516Z,353.8
2023-04-09T09:49:04.207Z,335.2
2023-04-09T09:59:03.899Z,166.9
2023-04-09T10:00:53.311Z,174.8
2023-04-09T10:05:22.919Z,210.6
2023-04-09T10:10:22.438Z,194.6
2023-04-09T10:15:21.559Z,226.9
2023-04-09T10:20:21.136Z,812.4
2023-04-09T10:25:20.916Z,419.1
2023-04-09T10:30:20.616Z,307.1
2023-04-09T10:40:21.474Z,312.6
2023-04-09T10:45:18.836Z,270.4
2023-04-09T10:50:18.001Z,263.7
2023-04-09T10:55:17.424Z,247.2
2023-04-09T11:39:40.015Z,375.2
2023-04-09T12:04:22.068Z,328.4
2023-04-09T12:09:20.493Z,393.2
2023-04-09T12:14:19.951Z,350.9
2023-04-09T12:19:19.983Z,299.3
2023-04-09T12:24:17.820Z,305.5
2023-04-09T12:29:18.034Z,287.2
2023-04-09T12:34:17.443Z,288.4
2023-04-09T12:39:17.114Z,703.7
2023-04-09T12:44:15.639Z,316.7
2023-04-09T12:49:14.575Z,273.9
2023-04-09T12:54:14.321Z,762.7
2023-04-09T12:59:13.802Z,739.7
2023-04-09T13:04:15.023Z,792.9
2023-04-09T13:09:13.543Z,861.8
2023-04-09T13:14:14.728Z,764.8
2023-04-09T13:19:14.026Z,870.5
2023-04-09T13:24:15.350Z,284.4
2023-04-09T13:29:12.281Z,198.5
2023-04-09T13:34:11.765Z,688.9
2023-04-09T13:44:11.043Z,483.5
2023-04-09T13:49:08.658Z,650.7
2023-04-09T13:54:08.584Z,629.9
2023-04-09T13:59:08.165Z,616.6
2023-04-09T14:01:12.316Z,619.7
2023-04-09T14:05:27.345Z,610.6
2023-04-09T14:10:27.357Z,597.1
2023-04-09T14:15:26.989Z,587.7
2023-04-09T14:20:26.894Z,573.3
2023-04-09T14:25:24.597Z,579.9
2023-04-09T14:30:24.793Z,593.9
2023-04-09T14:35:24.015Z,565.6
2023-04-09T14:40:23.624Z,551.7
2023-04-09T14:45:22.996Z,535.5
2023-04-09T14:50:22.567Z,493.7
2023-04-09T14:55:22.748Z,479.6
2023-04-09T17:04:10.040Z,86.5
2023-04-09T17:09:09.323Z,80.3
2023-04-09T17:14:07.212Z,75.2
2023-04-09T17:19:06.592Z,64.5
2023-04-09T17:24:05.967Z,40.6
2023-04-09T17:29:07.504Z,27.5
2023-04-09T17:34:03.954Z,38.7
2023-04-09T17:39:03.937Z,22.4
2023-04-09T17:44:03.143Z,17.9
2023-04-09T17:49:04.670Z,14.1
2023-04-09T17:54:00.283Z,10.1
2023-04-09T17:58:59.602Z,7.3
2023-04-09T18:00:46.722Z,6.4
2023-04-09T18:05:22.158Z,4.4
2023-04-09T18:10:20.121Z,3.6
2023-04-09T18:15:19.396Z,2.1
2023-04-09T18:21:13.307Z,0.9
2023-04-09T18:25:19.227Z,0.5
2023-04-09T18:30:18.737Z,0.3
2023-04-09T18:35:19.158Z,0.2
2023-04-09T18:40:18.232Z,0.2
2023-04-09T18:45:19.272Z,0.2
2023-04-09T21:01:01.175Z,0.2
2023-04-09T22:04:56.970Z,0.2
2023-04-09T22:09:56.079Z,0.2
2023-04-09T22:49:52.721Z,0.2
